sensor_id;sensor_type;location;lat;lon;timestamp;pressure;altitude;pressure_sealevel;temperature;humidity
55077;BME280;40971;44.702;11.030;2023-07-31T00:05:01;100992.16;;;23.08;87.00
55077;BME280;40971;44.702;11.030;2023-07-31T00:15:05;101008.03;;;22.98;88.46
55077;BME280;40971;44.702;11.030;2023-07-31T00:25:07;101009.63;;;22.71;90.23
55077;BME280;40971;44.702;11.030;2023-07-31T00:35:10;100991.91;;;22.58;91.25
55077;BME280;40971;44.702;11.030;2023-07-31T00:45:11;101008.94;;;22.75;91.46
55077;BME280;40971;44.702;11.030;2023-07-31T00:55:13;101007.97;;;22.81;90.96
55077;BME280;40971;44.702;11.030;2023-07-31T01:05:15;101025.81;;;22.76;90.87
55077;BME280;40971;44.702;11.030;2023-07-31T01:15:18;101032.34;;;22.80;89.94
55077;BME280;40971;44.702;11.030;2023-07-31T01:35:31;101022.41;;;22.34;92.72
55077;BME280;40971;44.702;11.030;2023-07-31T01:45:32;101036.28;;;22.42;92.40
55077;BME280;40971;44.702;11.030;2023-07-31T01:55:34;101028.47;;;22.18;94.52
55077;BME280;40971;44.702;11.030;2023-07-31T02:05:35;101019.03;;;22.15;95.84
55077;BME280;40971;44.702;11.030;2023-07-31T02:15:39;101010.16;;;22.03;96.52
55077;BME280;40971;44.702;11.030;2023-07-31T02:25:40;101022.31;;;22.40;95.56
55077;BME280;40971;44.702;11.030;2023-07-31T02:35:41;101024.38;;;22.61;95.00
55077;BME280;40971;44.702;11.030;2023-07-31T02:45:42;101039.56;;;22.68;93.55
55077;BME280;40971;44.702;11.030;2023-07-31T02:55:44;101033.06;;;22.64;94.01
55077;BME280;40971;44.702;11.030;2023-07-31T03:05:45;101031.97;;;22.30;94.14
55077;BME280;40971;44.702;11.030;2023-07-31T03:15:46;101022.59;;;21.97;94.02
55077;BME280;40971;44.702;11.030;2023-07-31T03:25:59;101039.50;;;21.98;95.05
55077;BME280;40971;44.702;11.030;2023-07-31T03:36:03;101050.59;;;21.72;94.65
55077;BME280;40971;44.702;11.030;2023-07-31T03:46:06;101060.56;;;21.65;94.76
55077;BME280;40971;44.702;11.030;2023-07-31T03:56:08;101070.22;;;21.66;95.04
55077;BME280;40971;44.702;11.030;2023-07-31T04:06:09;101064.88;;;21.66;94.28
55077;BME280;40971;44.702;11.030;2023-07-31T04:16:12;101060.19;;;21.61;94.76
55077;BME280;40971;44.702;11.030;2023-07-31T04:26:16;101070.69;;;21.63;94.42
55077;BME280;40971;44.702;11.030;2023-07-31T04:36:19;101064.44;;;21.80;94.62
55077;BME280;40971;44.702;11.030;2023-07-31T04:46:22;101071.25;;;21.94;94.53
55077;BME280;40971;44.702;11.030;2023-07-31T04:56:23;101075.81;;;21.94;94.75
55077;BME280;40971;44.702;11.030;2023-07-31T05:06:24;101081.94;;;21.83;95.59
55077;BME280;40971;44.702;11.030;2023-07-31T05:16:25;101100.44;;;22.26;97.35
55077;BME280;40971;44.702;11.030;2023-07-31T05:26:27;101095.50;;;22.52;96.04
55077;BME280;40971;44.702;11.030;2023-07-31T05:36:28;101103.19;;;22.84;94.96
55077;BME280;40971;44.702;11.030;2023-07-31T05:46:31;101102.75;;;22.64;89.15
55077;BME280;40971;44.702;11.030;2023-07-31T05:56:33;101115.06;;;22.41;85.44
55077;BME280;40971;44.702;11.030;2023-07-31T06:06:37;101127.66;;;22.52;81.18
55077;BME280;40971;44.702;11.030;2023-07-31T06:16:41;101123.25;;;22.81;79.97
55077;BME280;40971;44.702;11.030;2023-07-31T06:26:46;101138.28;;;23.17;77.95
55077;BME280;40971;44.702;11.030;2023-07-31T06:36:51;101140.47;;;23.43;76.81
55077;BME280;40971;44.702;11.030;2023-07-31T06:46:53;101145.69;;;23.90;72.62
55077;BME280;40971;44.702;11.030;2023-07-31T06:56:56;101155.00;;;24.77;69.17
55077;BME280;40971;44.702;11.030;2023-07-31T07:06:57;101150.38;;;25.92;65.89
55077;BME280;40971;44.702;11.030;2023-07-31T07:16:59;101146.09;;;26.55;66.07
55077;BME280;40971;44.702;11.030;2023-07-31T07:27:00;101151.78;;;27.37;63.80
55077;BME280;40971;44.702;11.030;2023-07-31T07:37:01;101149.28;;;27.78;64.91
55077;BME280;40971;44.702;11.030;2023-07-31T07:47:03;101166.63;;;27.40;64.74
55077;BME280;40971;44.702;11.030;2023-07-31T07:57:06;101182.38;;;28.40;62.93
55077;BME280;40971;44.702;11.030;2023-07-31T08:07:07;101163.03;;;27.76;62.96
55077;BME280;40971;44.702;11.030;2023-07-31T08:17:08;101152.75;;;27.78;63.59
55077;BME280;40971;44.702;11.030;2023-07-31T08:27:09;101157.63;;;27.81;62.64
55077;BME280;40971;44.702;11.030;2023-07-31T08:37:10;101153.56;;;29.45;60.11
55077;BME280;40971;44.702;11.030;2023-07-31T08:47:12;101168.81;;;29.11;61.11
55077;BME280;40971;44.702;11.030;2023-07-31T08:57:14;101146.44;;;30.08;58.85
55077;BME280;40971;44.702;11.030;2023-07-31T09:07:16;101155.84;;;28.93;60.42
55077;BME280;40971;44.702;11.030;2023-07-31T09:17:37;101146.97;;;28.67;59.74
55077;BME280;40971;44.702;11.030;2023-07-31T09:27:46;101137.81;;;30.97;54.01
55077;BME280;40971;44.702;11.030;2023-07-31T09:37:52;101139.31;;;31.75;49.74
55077;BME280;40971;44.702;11.030;2023-07-31T09:47:55;101126.31;;;30.53;50.92
55077;BME280;40971;44.702;11.030;2023-07-31T09:57:57;101124.28;;;30.64;48.59
55077;BME280;40971;44.702;11.030;2023-07-31T10:07:58;101122.78;;;30.52;48.44
55077;BME280;40971;44.702;11.030;2023-07-31T10:18:01;101116.56;;;31.28;47.19
55077;BME280;40971;44.702;11.030;2023-07-31T10:28:02;101102.94;;;31.89;48.87
55077;BME280;40971;44.702;11.030;2023-07-31T10:38:12;101095.84;;;30.85;47.45
55077;BME280;40971;44.702;11.030;2023-07-31T10:48:14;101093.31;;;31.17;47.92
55077;BME280;40971;44.702;11.030;2023-07-31T10:58:19;101089.22;;;31.38;47.89
55077;BME280;40971;44.702;11.030;2023-07-31T11:08:26;101090.31;;;32.63;45.76
55077;BME280;40971;44.702;11.030;2023-07-31T11:18:27;101081.06;;;33.05;45.36
55077;BME280;40971;44.702;11.030;2023-07-31T11:28:32;101066.84;;;32.94;45.31
55077;BME280;40971;44.702;11.030;2023-07-31T11:38:34;101041.03;;;33.41;44.05
55077;BME280;40971;44.702;11.030;2023-07-31T11:48:37;101040.78;;;34.40;42.41
55077;BME280;40971;44.702;11.030;2023-07-31T11:58:39;101010.56;;;32.16;45.78
55077;BME280;40971;44.702;11.030;2023-07-31T12:08:41;101000.19;;;34.08;42.02
55077;BME280;40971;44.702;11.030;2023-07-31T12:18:44;100985.38;;;33.78;40.94
55077;BME280;40971;44.702;11.030;2023-07-31T12:28:50;100969.75;;;33.12;41.74
55077;BME280;40971;44.702;11.030;2023-07-31T12:38:52;100965.03;;;34.54;39.63
55077;BME280;40971;44.702;11.030;2023-07-31T12:48:54;100949.44;;;33.18;42.34
55077;BME280;40971;44.702;11.030;2023-07-31T12:58:55;100940.69;;;35.78;38.61
55077;BME280;40971;44.702;11.030;2023-07-31T13:08:56;100922.81;;;32.38;45.58
55077;BME280;40971;44.702;11.030;2023-07-31T13:18:58;100905.09;;;34.49;40.59
55077;BME280;40971;44.702;11.030;2023-07-31T13:28:59;100903.72;;;33.15;43.24
55077;BME280;40971;44.702;11.030;2023-07-31T13:39:00;100887.88;;;34.40;39.25
55077;BME280;40971;44.702;11.030;2023-07-31T13:49:01;100878.69;;;34.19;39.94
55077;BME280;40971;44.702;11.030;2023-07-31T13:59:04;100871.03;;;33.98;40.57
55077;BME280;40971;44.702;11.030;2023-07-31T14:09:06;100849.38;;;35.36;38.66
55077;BME280;40971;44.702;11.030;2023-07-31T14:19:07;100829.25;;;35.32;37.83
55077;BME280;40971;44.702;11.030;2023-07-31T14:29:10;100826.41;;;33.94;41.25
55077;BME280;40971;44.702;11.030;2023-07-31T14:39:11;100826.66;;;34.15;39.60
55077;BME280;40971;44.702;11.030;2023-07-31T14:49:12;100812.53;;;32.99;43.18
55077;BME280;40971;44.702;11.030;2023-07-31T14:59:14;100804.53;;;33.77;40.31
55077;BME280;40971;44.702;11.030;2023-07-31T15:09:17;100799.69;;;33.74;40.17
55077;BME280;40971;44.702;11.030;2023-07-31T15:19:19;100796.44;;;34.12;37.94
55077;BME280;40971;44.702;11.030;2023-07-31T15:29:20;100794.91;;;34.36;37.57
55077;BME280;40971;44.702;11.030;2023-07-31T15:39:23;100789.53;;;34.06;44.18
55077;BME280;40971;44.702;11.030;2023-07-31T15:49:26;100795.47;;;33.07;41.38
55077;BME280;40971;44.702;11.030;2023-07-31T15:59:30;100801.22;;;32.34;43.29
55077;BME280;40971;44.702;11.030;2023-07-31T16:09:31;100786.09;;;32.41;44.17
55077;BME280;40971;44.702;11.030;2023-07-31T16:19:33;100803.13;;;32.82;45.18
55077;BME280;40971;44.702;11.030;2023-07-31T16:29:37;100795.56;;;33.02;42.48
55077;BME280;40971;44.702;11.030;2023-07-31T16:39:38;100792.44;;;33.08;43.50
55077;BME280;40971;44.702;11.030;2023-07-31T16:49:41;100780.13;;;32.39;44.79
55077;BME280;40971;44.702;11.030;2023-07-31T16:59:42;100763.91;;;31.71;45.45
55077;BME280;40971;44.702;11.030;2023-07-31T17:09:43;100767.13;;;31.59;48.06
55077;BME280;40971;44.702;11.030;2023-07-31T17:19:44;100764.88;;;30.83;47.24
55077;BME280;40971;44.702;11.030;2023-07-31T17:29:46;100771.84;;;30.33;49.98
55077;BME280;40971;44.702;11.030;2023-07-31T17:39:56;100763.75;;;31.03;48.87
55077;BME280;40971;44.702;11.030;2023-07-31T17:49:57;100761.13;;;30.98;47.98
55077;BME280;40971;44.702;11.030;2023-07-31T17:59:58;100763.63;;;30.76;48.74
55077;BME280;40971;44.702;11.030;2023-07-31T18:09:59;100757.66;;;30.41;50.35
55077;BME280;40971;44.702;11.030;2023-07-31T18:20:01;100764.50;;;29.68;50.94
55077;BME280;40971;44.702;11.030;2023-07-31T18:30:02;100773.00;;;29.32;51.70
55077;BME280;40971;44.702;11.030;2023-07-31T18:40:05;100781.69;;;29.01;53.75
55077;BME280;40971;44.702;11.030;2023-07-31T18:50:06;100808.19;;;28.60;55.13
55077;BME280;40971;44.702;11.030;2023-07-31T19:00:08;100805.53;;;27.75;59.90
55077;BME280;40971;44.702;11.030;2023-07-31T19:10:09;100825.59;;;27.54;62.89
55077;BME280;40971;44.702;11.030;2023-07-31T19:20:11;100839.03;;;26.89;65.93
55077;BME280;40971;44.702;11.030;2023-07-31T19:30:12;100856.13;;;26.32;64.67
55077;BME280;40971;44.702;11.030;2023-07-31T19:40:15;100852.97;;;25.98;69.23
55077;BME280;40971;44.702;11.030;2023-07-31T19:50:16;100853.00;;;25.35;72.66
55077;BME280;40971;44.702;11.030;2023-07-31T20:00:17;100841.22;;;25.41;72.00
55077;BME280;40971;44.702;11.030;2023-07-31T20:10:18;100840.06;;;25.00;72.97
55077;BME280;40971;44.702;11.030;2023-07-31T20:20:21;100838.31;;;24.84;73.63
55077;BME280;40971;44.702;11.030;2023-07-31T20:30:23;100838.16;;;24.96;75.76
55077;BME280;40971;44.702;11.030;2023-07-31T20:40:25;100840.69;;;24.80;77.09
55077;BME280;40971;44.702;11.030;2023-07-31T20:50:28;100811.94;;;24.59;77.58
55077;BME280;40971;44.702;11.030;2023-07-31T21:00:32;100829.91;;;23.94;79.45
55077;BME280;40971;44.702;11.030;2023-07-31T21:10:37;100834.00;;;23.80;79.83
55077;BME280;40971;44.702;11.030;2023-07-31T21:20:46;100818.22;;;23.83;79.79
55077;BME280;40971;44.702;11.030;2023-07-31T21:30:48;100804.94;;;23.55;80.81
55077;BME280;40971;44.702;11.030;2023-07-31T21:40:51;100812.16;;;23.54;80.22
55077;BME280;40971;44.702;11.030;2023-07-31T21:50:54;100815.88;;;23.87;77.14
55077;BME280;40971;44.702;11.030;2023-07-31T22:00:58;100811.72;;;23.29;80.35
55077;BME280;40971;44.702;11.030;2023-07-31T22:11:07;100780.69;;;23.16;80.84
55077;BME280;40971;44.702;11.030;2023-07-31T22:21:09;100768.06;;;23.67;79.37
55077;BME280;40971;44.702;11.030;2023-07-31T22:31:11;100744.75;;;24.11;77.40
55077;BME280;40971;44.702;11.030;2023-07-31T22:41:16;100743.34;;;23.87;78.42
55077;BME280;40971;44.702;11.030;2023-07-31T22:51:17;100736.56;;;23.62;79.72
55077;BME280;40971;44.702;11.030;2023-07-31T23:01:18;100731.25;;;23.46;80.74
55077;BME280;40971;44.702;11.030;2023-07-31T23:11:21;100718.91;;;23.45;81.02
55077;BME280;40971;44.702;11.030;2023-07-31T23:21:22;100700.72;;;22.97;83.93
55077;BME280;40971;44.702;11.030;2023-07-31T23:31:24;100707.56;;;22.88;84.02
55077;BME280;40971;44.702;11.030;2023-07-31T23:41:25;100689.84;;;22.42;85.03
55077;BME280;40971;44.702;11.030;2023-07-31T23:51:27;100688.72;;;22.38;85.87
